createdAt,value
2022-08-26T00:01:41.769Z,2.50
2022-08-26T00:04:34.304Z,2.50
2022-08-26T00:07:24.481Z,2.30
2022-08-26T00:10:15.097Z,2.40
2022-08-26T00:13:05.994Z,2.40
2022-08-26T00:15:57.085Z,2.60
2022-08-26T00:18:46.780Z,2.50
2022-08-26T00:21:37.579Z,2.30
2022-08-26T00:24:31.537Z,2.20
2022-08-26T00:27:21.676Z,2.30
2022-08-26T00:30:22.735Z,2.30
2022-08-26T00:33:17.587Z,2.40
2022-08-26T00:36:09.496Z,2.80
2022-08-26T00:39:12.091Z,2.60
2022-08-26T00:42:03.188Z,2.20
2022-08-26T00:44:53.914Z,2.40
2022-08-26T00:47:49.278Z,2.70
2022-08-26T00:50:44.920Z,2.50
2022-08-26T00:53:41.465Z,2.20
2022-08-26T00:56:38.368Z,2.60
2022-08-26T00:59:32.971Z,2.30
2022-08-26T01:02:25.085Z,2.40
2022-08-26T01:05:16.146Z,2.50
2022-08-26T01:08:07.474Z,2.70
2022-08-26T01:10:59.719Z,2.40
2022-08-26T01:13:50.962Z,2.40
2022-08-26T01:16:44.351Z,2.50
2022-08-26T01:19:39.586Z,2.40
2022-08-26T01:22:36.738Z,2.20
2022-08-26T01:25:30.445Z,2.70
2022-08-26T01:28:24.733Z,2.50
2022-08-26T01:31:21.712Z,2.50
2022-08-26T01:34:18.408Z,2.60
2022-08-26T01:37:15.656Z,2.60
2022-08-26T01:40:08.691Z,2.40
2022-08-26T01:43:00.155Z,2.40
2022-08-26T01:45:54.583Z,2.70
2022-08-26T01:48:47.319Z,2.60
2022-08-26T01:51:45.878Z,2.70
2022-08-26T01:54:38.852Z,2.40
2022-08-26T01:57:31.908Z,2.60
2022-08-26T02:00:23.983Z,2.70
2022-08-26T02:03:22.367Z,2.50
2022-08-26T02:06:13.033Z,2.70
2022-08-26T02:09:06.115Z,2.50
2022-08-26T02:11:57.319Z,2.80
2022-08-26T02:14:52.054Z,2.40
2022-08-26T02:17:45.103Z,2.50
2022-08-26T02:20:35.797Z,2.60
2022-08-26T02:23:28.430Z,2.70
2022-08-26T02:26:21.918Z,2.90
2022-08-26T02:29:17.787Z,2.60
2022-08-26T02:32:13.055Z,2.70
2022-08-26T02:35:10.188Z,2.60
2022-08-26T02:38:01.682Z,2.50
2022-08-26T02:40:54.950Z,2.70
2022-08-26T02:43:45.772Z,2.70
2022-08-26T02:46:35.945Z,2.70
2022-08-26T02:49:31.231Z,2.80
2022-08-26T02:52:22.020Z,2.50
2022-08-26T02:55:12.831Z,2.80
2022-08-26T02:58:03.576Z,2.60
2022-08-26T03:00:54.325Z,2.70
2022-08-26T03:03:44.853Z,2.90
2022-08-26T03:06:35.323Z,3.00
2022-08-26T03:09:29.901Z,2.70
2022-08-26T03:12:20.471Z,2.70
2022-08-26T03:15:16.398Z,2.60
2022-08-26T03:18:09.097Z,3.20
2022-08-26T03:21:06.278Z,2.90
2022-08-26T03:23:59.440Z,2.80
2022-08-26T03:27:00.297Z,2.70
2022-08-26T03:30:14.793Z,2.90
2022-08-26T03:33:06.478Z,2.80
2022-08-26T03:35:57.257Z,2.70
2022-08-26T03:38:47.932Z,2.70
2022-08-26T03:41:39.084Z,2.70
2022-08-26T03:44:29.690Z,2.70
2022-08-26T03:47:20.904Z,2.80
2022-08-26T03:50:14.175Z,2.90
2022-08-26T03:53:07.505Z,3.10
2022-08-26T03:56:03.609Z,2.90
2022-08-26T03:58:55.006Z,2.90
2022-08-26T04:01:45.259Z,3.20
2022-08-26T04:04:36.112Z,3.00
2022-08-26T04:07:26.702Z,3.00
2022-08-26T04:10:22.186Z,3.00
2022-08-26T04:13:19.555Z,3.10
2022-08-26T04:16:10.377Z,2.90
2022-08-26T04:19:03.308Z,2.80
2022-08-26T04:21:55.043Z,2.90
2022-08-26T04:24:45.692Z,2.90
2022-08-26T04:27:36.190Z,3.00
2022-08-26T04:30:28.958Z,3.10
2022-08-26T04:33:18.956Z,3.10
2022-08-26T04:36:23.694Z,2.70
2022-08-26T04:39:18.733Z,2.80
2022-08-26T04:42:11.079Z,2.80
2022-08-26T04:45:02.366Z,2.80
2022-08-26T04:47:59.485Z,2.90
2022-08-26T04:50:51.603Z,3.00
2022-08-26T04:53:42.293Z,2.70
2022-08-26T04:56:35.337Z,2.70
2022-08-26T04:59:25.930Z,3.20
2022-08-26T05:02:16.278Z,3.10
2022-08-26T05:05:07.951Z,3.00
2022-08-26T05:08:00.966Z,2.40
2022-08-26T05:10:56.372Z,2.60
2022-08-26T05:13:50.001Z,2.60
2022-08-26T05:16:40.981Z,2.50
2022-08-26T05:19:32.683Z,2.40
2022-08-26T05:22:23.555Z,2.40
2022-08-26T05:25:16.124Z,2.50
2022-08-26T05:28:08.279Z,2.60
2022-08-26T05:31:02.220Z,3.00
2022-08-26T05:33:53.081Z,2.40
2022-08-26T05:36:45.279Z,2.70
2022-08-26T05:39:37.091Z,2.50
2022-08-26T05:42:28.750Z,2.30
2022-08-26T05:45:19.426Z,2.80
2022-08-26T05:48:10.547Z,3.00
2022-08-26T05:51:08.611Z,3.20
2022-08-26T05:54:00.416Z,3.00
2022-08-26T05:56:52.482Z,3.20
2022-08-26T05:59:45.519Z,3.00
2022-08-26T06:02:35.875Z,3.40
2022-08-26T06:05:25.876Z,3.10
2022-08-26T06:08:21.296Z,3.10
2022-08-26T06:11:18.708Z,3.20
2022-08-26T06:14:10.962Z,3.40
2022-08-26T06:17:03.036Z,3.10
2022-08-26T06:19:53.278Z,3.10
2022-08-26T06:23:01.683Z,4.60
2022-08-26T06:25:53.624Z,3.40
2022-08-26T06:28:45.561Z,3.20
2022-08-26T06:31:38.281Z,3.70
2022-08-26T06:34:31.098Z,3.20
2022-08-26T06:37:21.242Z,3.40
2022-08-26T06:40:12.732Z,3.50
2022-08-26T06:43:02.857Z,3.50
2022-08-26T06:46:01.031Z,3.70
2022-08-26T06:48:52.215Z,4.10
2022-08-26T06:51:43.727Z,3.80
2022-08-26T06:54:33.409Z,3.50
2022-08-26T06:57:23.424Z,3.80
2022-08-26T07:00:15.553Z,3.50
2022-08-26T07:03:06.182Z,3.80
2022-08-26T07:06:04.346Z,3.60
2022-08-26T07:09:01.487Z,3.40
2022-08-26T07:11:55.718Z,3.70
2022-08-26T07:14:47.491Z,3.80
2022-08-26T07:17:39.268Z,3.40
2022-08-26T07:20:30.540Z,3.10
2022-08-26T07:23:21.137Z,4.10
2022-08-26T07:26:16.420Z,3.70
2022-08-26T07:29:07.677Z,3.70
2022-08-26T07:31:58.323Z,3.60
2022-08-26T07:34:47.907Z,3.40
2022-08-26T07:37:39.474Z,3.70
2022-08-26T07:40:29.753Z,3.60
2022-08-26T07:43:20.122Z,4.40
2022-08-26T07:46:15.921Z,4.00
2022-08-26T07:49:06.779Z,3.80
2022-08-26T07:51:58.565Z,3.80
2022-08-26T07:54:49.054Z,4.10
2022-08-26T07:57:40.140Z,4.60
2022-08-26T08:00:32.926Z,4.40
2022-08-26T08:03:23.955Z,4.50
2022-08-26T08:06:14.049Z,4.30
2022-08-26T08:09:05.227Z,4.50
2022-08-26T08:11:57.503Z,4.80
2022-08-26T08:14:49.125Z,4.40
2022-08-26T08:17:43.054Z,3.60
2022-08-26T08:20:34.248Z,3.90
2022-08-26T08:23:26.522Z,4.30
2022-08-26T08:26:18.210Z,4.70
2022-08-26T08:29:09.111Z,4.90
2022-08-26T08:32:00.622Z,4.60
2022-08-26T08:34:53.452Z,4.80
2022-08-26T08:37:45.254Z,4.80
2022-08-26T08:40:40.357Z,4.20
2022-08-26T08:43:41.443Z,4.90
2022-08-26T08:46:31.931Z,4.80
2022-08-26T08:49:22.162Z,4.20
2022-08-26T08:52:22.145Z,4.70
2022-08-26T08:55:18.040Z,4.10
2022-08-26T08:58:15.041Z,4.20
2022-08-26T09:01:15.870Z,4.30
2022-08-26T09:04:20.507Z,3.70
2022-08-26T09:07:14.803Z,4.00
2022-08-26T09:10:24.109Z,4.10
2022-08-26T09:13:25.414Z,4.10
2022-08-26T09:16:20.802Z,3.70
2022-08-26T09:19:22.854Z,3.60
2022-08-26T09:22:28.678Z,4.00
2022-08-26T09:25:19.063Z,3.40
2022-08-26T09:28:17.048Z,4.30
2022-08-26T09:31:16.011Z,3.40
2022-08-26T09:34:17.793Z,3.30
2022-08-26T09:37:08.875Z,3.40
2022-08-26T09:40:17.443Z,3.40
2022-08-26T09:43:16.088Z,3.20
2022-08-26T09:46:25.890Z,3.20
2022-08-26T09:49:29.905Z,3.20
2022-08-26T09:52:27.926Z,3.90
2022-08-26T09:55:24.422Z,5.50
2022-08-26T09:58:32.610Z,10.70
2022-08-26T10:01:33.176Z,9.50
2022-08-26T10:04:27.214Z,7.70
2022-08-26T10:07:37.289Z,10.50
2022-08-26T10:10:33.270Z,7.60
2022-08-26T10:13:29.532Z,4.80
2022-08-26T10:16:25.451Z,4.80
2022-08-26T10:19:23.915Z,4.00
2022-08-26T10:22:25.779Z,4.10
2022-08-26T10:25:18.958Z,3.50
2022-08-26T10:28:19.650Z,3.50
2022-08-26T10:31:20.000Z,3.40
2022-08-26T10:34:14.381Z,3.50
2022-08-26T10:37:14.614Z,3.50
2022-08-26T10:40:14.810Z,3.70
2022-08-26T10:43:11.724Z,3.60
2022-08-26T10:46:05.800Z,3.10
2022-08-26T10:49:00.574Z,4.00
2022-08-26T10:52:01.796Z,4.00
2022-08-26T10:55:03.050Z,3.30
2022-08-26T10:58:04.995Z,3.50
2022-08-26T11:01:22.811Z,3.20
2022-08-26T11:04:25.357Z,3.00
2022-08-26T11:07:38.276Z,3.10
2022-08-26T11:11:05.229Z,3.10
2022-08-26T11:14:09.782Z,3.40
2022-08-26T11:17:03.175Z,3.40
2022-08-26T11:20:09.276Z,3.50
2022-08-26T11:23:50.569Z,3.10
2022-08-26T11:26:56.094Z,3.50
2022-08-26T11:30:08.868Z,3.70
2022-08-26T11:33:01.305Z,3.30
2022-08-26T11:35:53.909Z,3.20
2022-08-26T11:38:46.945Z,3.10
2022-08-26T11:41:37.700Z,3.20
2022-08-26T11:44:30.308Z,3.20
2022-08-26T11:47:30.311Z,3.00
2022-08-26T11:50:26.140Z,3.20
2022-08-26T11:53:21.873Z,3.20
2022-08-26T11:56:18.944Z,2.90
2022-08-26T11:59:16.764Z,2.90
2022-08-26T12:02:14.345Z,2.90
2022-08-26T12:05:05.498Z,2.90
2022-08-26T12:07:56.573Z,2.30
2022-08-26T12:10:50.367Z,2.70
2022-08-26T12:13:42.398Z,2.60
2022-08-26T12:16:36.603Z,2.60
2022-08-26T12:19:32.718Z,2.70
2022-08-26T12:22:26.861Z,2.50
2022-08-26T12:25:25.506Z,2.30
2022-08-26T12:28:18.301Z,2.70
2022-08-26T12:31:10.464Z,2.70
2022-08-26T12:34:04.709Z,2.40
2022-08-26T12:37:01.046Z,2.50
2022-08-26T12:39:51.238Z,2.60
2022-08-26T12:42:44.772Z,2.50
2022-08-26T12:45:38.327Z,2.50
2022-08-26T12:48:31.155Z,2.60
2022-08-26T12:51:27.051Z,2.50
2022-08-26T12:54:19.116Z,2.40
2022-08-26T12:57:14.648Z,2.80
2022-08-26T13:00:33.016Z,2.70
2022-08-26T13:03:43.997Z,2.50
2022-08-26T13:06:35.407Z,2.70
2022-08-26T13:09:38.663Z,2.90
2022-08-26T13:12:35.466Z,2.90
2022-08-26T13:15:29.093Z,3.10
2022-08-26T13:18:23.272Z,3.30
2022-08-26T13:21:18.294Z,3.20
2022-08-26T13:24:11.902Z,3.10
2022-08-26T13:27:04.341Z,2.90
2022-08-26T13:29:57.249Z,2.80
2022-08-26T13:32:49.050Z,3.10
2022-08-26T13:35:39.699Z,3.20
2022-08-26T13:38:33.231Z,3.30
2022-08-26T13:41:29.115Z,3.60
2022-08-26T13:44:21.670Z,3.60
2022-08-26T13:47:13.788Z,3.70
2022-08-26T13:50:04.345Z,3.80
2022-08-26T13:52:55.222Z,3.40
2022-08-26T13:55:45.645Z,3.10
2022-08-26T13:58:35.985Z,3.30
2022-08-26T14:01:28.043Z,3.70
2022-08-26T14:04:23.331Z,3.70
2022-08-26T14:07:19.733Z,4.00
2022-08-26T14:10:11.012Z,4.10
2022-08-26T14:13:02.041Z,4.00
2022-08-26T14:15:54.624Z,3.90
2022-08-26T14:18:50.468Z,4.20
2022-08-26T14:21:41.866Z,4.30
2022-08-26T14:24:33.156Z,4.00
2022-08-26T14:27:25.292Z,4.30
2022-08-26T14:30:15.948Z,4.00
2022-08-26T14:33:06.981Z,4.30
2022-08-26T14:36:17.687Z,4.10
2022-08-26T14:39:10.973Z,3.90
2022-08-26T14:42:02.735Z,3.70
2022-08-26T14:44:57.697Z,3.90
2022-08-26T14:47:49.207Z,3.60
2022-08-26T14:50:40.037Z,4.30
2022-08-26T14:53:48.110Z,3.90
2022-08-26T14:56:42.538Z,4.00
2022-08-26T14:59:35.496Z,3.80
2022-08-26T15:02:33.134Z,3.50
2022-08-26T15:05:25.055Z,3.20
2022-08-26T15:08:16.229Z,3.40
2022-08-26T15:11:06.636Z,3.40
2022-08-26T15:13:57.397Z,3.70
2022-08-26T15:16:47.168Z,3.50
2022-08-26T15:19:36.985Z,3.10
2022-08-26T15:22:29.457Z,3.70
2022-08-26T15:25:20.567Z,3.50
2022-08-26T15:28:10.927Z,5.00
2022-08-26T15:31:02.123Z,6.60
2022-08-26T15:33:53.771Z,5.00
2022-08-26T15:36:44.950Z,6.10
2022-08-26T15:39:38.267Z,6.60
2022-08-26T15:42:29.756Z,5.90
2022-08-26T15:45:25.927Z,6.10
2022-08-26T15:48:17.482Z,5.30
2022-08-26T15:51:10.254Z,4.90
2022-08-26T15:54:01.065Z,4.70
2022-08-26T15:56:52.465Z,4.70
2022-08-26T15:59:43.052Z,5.50
2022-08-26T16:02:33.515Z,7.50
2022-08-26T16:05:23.738Z,5.60
2022-08-26T16:08:15.659Z,4.90
2022-08-26T16:11:06.457Z,4.30
2022-08-26T16:13:56.958Z,4.30
2022-08-26T16:16:47.747Z,3.40
2022-08-26T16:19:38.881Z,3.90
2022-08-26T16:22:29.503Z,3.20
2022-08-26T16:25:24.723Z,4.20
2022-08-26T16:28:26.104Z,4.10
2022-08-26T16:31:17.702Z,4.20
2022-08-26T16:34:08.724Z,4.40
2022-08-26T16:36:59.523Z,4.60
2022-08-26T16:39:50.175Z,4.60
2022-08-26T16:42:41.559Z,3.70
2022-08-26T16:45:32.867Z,4.10
2022-08-26T16:48:26.604Z,4.50
2022-08-26T16:51:20.121Z,4.80
2022-08-26T16:54:11.448Z,4.60
2022-08-26T16:57:01.511Z,4.00
2022-08-26T16:59:52.429Z,4.40
2022-08-26T17:02:43.465Z,4.80
2022-08-26T17:05:36.356Z,3.70
2022-08-26T17:08:28.609Z,3.80
2022-08-26T17:11:19.724Z,4.30
2022-08-26T17:14:10.078Z,4.20
2022-08-26T17:17:00.243Z,3.80
2022-08-26T17:19:51.643Z,4.00
2022-08-26T17:22:43.817Z,3.80
2022-08-26T17:25:34.796Z,3.80
2022-08-26T17:28:25.590Z,3.90
2022-08-26T17:31:16.454Z,4.30
2022-08-26T17:34:06.900Z,4.60
2022-08-26T17:36:56.894Z,4.90
2022-08-26T17:39:46.564Z,4.70
2022-08-26T17:42:37.674Z,4.50
2022-08-26T17:45:28.287Z,5.70
2022-08-26T17:48:18.441Z,4.30
2022-08-26T17:51:12.632Z,5.20
2022-08-26T17:54:03.969Z,5.30
2022-08-26T17:56:53.724Z,6.40
2022-08-26T17:59:44.547Z,5.80
2022-08-26T18:02:37.616Z,5.70
2022-08-26T18:05:27.823Z,5.20
2022-08-26T18:08:18.015Z,3.90
2022-08-26T18:11:11.245Z,3.40
2022-08-26T18:14:01.992Z,3.20
2022-08-26T18:16:52.661Z,3.00
2022-08-26T18:22:34.287Z,3.30
2022-08-26T18:25:25.688Z,3.20
2022-08-26T18:28:16.707Z,3.00
2022-08-26T18:31:09.201Z,3.00
2022-08-26T18:34:02.453Z,3.00
2022-08-26T18:36:55.852Z,3.40
2022-08-26T18:39:46.180Z,3.20
2022-08-26T18:42:36.437Z,3.60
2022-08-26T18:45:26.138Z,3.80
2022-08-26T18:48:18.891Z,4.70
2022-08-26T18:51:12.598Z,5.30
2022-08-26T18:54:05.513Z,3.90
2022-08-26T18:56:59.586Z,3.50
2022-08-26T18:59:53.818Z,3.90
2022-08-26T19:02:52.246Z,3.70
2022-08-26T19:05:46.813Z,3.20
2022-08-26T19:08:37.198Z,3.80
2022-08-26T19:11:37.485Z,3.60
2022-08-26T19:14:33.221Z,4.50
2022-08-26T19:17:26.358Z,4.10
2022-08-26T19:20:16.829Z,4.30
2022-08-26T19:23:21.561Z,3.70
2022-08-26T19:26:17.279Z,3.60
2022-08-26T19:29:08.122Z,3.70
2022-08-26T19:31:58.765Z,3.80
2022-08-26T19:34:51.077Z,3.70
2022-08-26T19:37:40.867Z,3.70
2022-08-26T19:40:31.970Z,3.80
2022-08-26T19:43:21.573Z,3.40
2022-08-26T19:46:16.063Z,3.40
2022-08-26T19:49:09.890Z,3.60
2022-08-26T19:52:00.943Z,3.60
2022-08-26T19:54:51.367Z,3.80
2022-08-26T19:57:43.512Z,3.60
2022-08-26T20:00:35.789Z,3.50
2022-08-26T20:03:27.960Z,3.70
2022-08-26T20:06:20.057Z,4.10
2022-08-26T20:09:10.164Z,3.70
2022-08-26T20:12:00.386Z,4.10
2022-08-26T20:14:50.786Z,3.90
2022-08-26T20:17:41.750Z,3.90
2022-08-26T20:20:49.326Z,4.00
2022-08-26T20:23:39.679Z,3.70
2022-08-26T20:26:31.072Z,3.90
2022-08-26T20:29:22.353Z,3.60
2022-08-26T20:32:13.165Z,3.70
2022-08-26T20:35:03.168Z,3.60
2022-08-26T20:37:53.832Z,3.90
2022-08-26T20:40:43.957Z,4.00
2022-08-26T20:43:36.081Z,4.00
2022-08-26T20:46:27.355Z,4.20
2022-08-26T20:49:18.170Z,4.40
2022-08-26T20:52:08.357Z,4.20
2022-08-26T20:54:58.435Z,6.00
2022-08-26T20:57:51.704Z,4.20
2022-08-26T21:00:44.562Z,3.80
2022-08-26T21:03:35.038Z,4.10
2022-08-26T21:06:25.735Z,4.30
2022-08-26T21:09:17.896Z,4.00
2022-08-26T21:12:08.954Z,4.20
2022-08-26T21:15:01.820Z,4.20
2022-08-26T21:17:51.768Z,3.70
2022-08-26T21:20:41.979Z,4.00
2022-08-26T21:23:31.614Z,4.00
2022-08-26T21:26:21.422Z,4.00
2022-08-26T21:29:11.181Z,4.20
2022-08-26T21:32:00.935Z,4.30
2022-08-26T21:34:50.619Z,3.90
2022-08-26T21:37:40.688Z,3.40
2022-08-26T21:40:30.916Z,3.80
2022-08-26T21:43:35.052Z,4.00
2022-08-26T21:46:29.981Z,4.40
2022-08-26T21:49:20.119Z,3.90
2022-08-26T21:52:10.117Z,3.60
2022-08-26T21:55:09.120Z,3.50
2022-08-26T21:58:02.431Z,3.60
2022-08-26T22:00:53.676Z,3.20
2022-08-26T22:03:47.334Z,3.50
2022-08-26T22:06:43.379Z,3.70
2022-08-26T22:09:34.624Z,4.10
2022-08-26T22:12:24.824Z,3.90
2022-08-26T22:15:15.899Z,3.80
2022-08-26T22:18:06.127Z,4.00
2022-08-26T22:20:58.338Z,4.40
2022-08-26T22:23:51.529Z,4.20
2022-08-26T22:26:49.351Z,4.00
2022-08-26T22:29:40.324Z,4.60
2022-08-26T22:32:30.636Z,4.30
2022-08-26T22:35:28.936Z,4.30
2022-08-26T22:38:20.531Z,4.10
2022-08-26T22:41:11.866Z,4.30
2022-08-26T22:44:02.638Z,4.30
2022-08-26T22:46:55.102Z,4.30
2022-08-26T22:49:45.802Z,4.10
2022-08-26T22:52:36.693Z,4.10
2022-08-26T22:55:27.734Z,4.00
2022-08-26T22:58:20.170Z,4.00
2022-08-26T23:01:11.314Z,4.00
2022-08-26T23:04:02.783Z,3.80
2022-08-26T23:06:52.715Z,3.90
2022-08-26T23:09:43.606Z,4.10
2022-08-26T23:12:37.824Z,3.90
2022-08-26T23:15:28.697Z,4.00
2022-08-26T23:18:18.857Z,3.90
2022-08-26T23:21:10.683Z,3.80
2022-08-26T23:24:02.373Z,3.90
2022-08-26T23:26:52.982Z,3.80
2022-08-26T23:29:45.017Z,4.00
2022-08-26T23:32:34.841Z,4.30
2022-08-26T23:35:25.888Z,4.30
2022-08-26T23:38:16.417Z,4.50
2022-08-26T23:41:06.916Z,4.20
2022-08-26T23:44:02.849Z,4.00
2022-08-26T23:46:54.501Z,3.80
2022-08-26T23:49:45.323Z,4.00
2022-08-26T23:52:53.221Z,4.00
2022-08-26T23:55:43.618Z,3.70
2022-08-26T23:58:34.034Z,3.60
